Etusivu
METAR-TAF:

METAR-TAF

Lentoasemat :

Holguínin lentoasema

Holguín, Kuuba

Leveyspiiri: 20-47N, Pituuspiiri: 076-19W, korkeus merenpinnasta: 106 m

Tämänhetkinen sää

Tämä raportti tehtiin 34 minuuttia sitten, kello 20.50 UTC
Tuuli 14 kn idästä/koillisesta
Lämpötila 30°C
Kosteus 40%
Ilmanpaine 1014 hPa
Näkyvyys 10 km tai enemmän
Muutamia pilviä 2500 ft:n korkeudessa

METAR: MUHG 162050Z 06014KT 9999 FEW025 30/15 Q1014

Aika: 16:24 (21:24 UTC)

Sääennuste

Tämä raportti tehtiin 4 tuntia ja 24 minuuttia sitten, kello 17.00 UTC
Ennuste voimassa 16. päivästä klo 18 UTC - 17. päivään klo 18 UTC
Tuuli 12 kn idästä
Näkyvyys: 9000 m
Hajanaisia pilviä 2000 ft:n korkeudessa
Tulossa
17. päivästä klo 02 UTC - 17. päivään klo 04 UTC
Tuuli 3 kn eri suunnista
Tulossa
17. päivästä klo 15 UTC - 17. päivään klo 17 UTC
Tuuli 12 kn idästä

TAF: MUHG 161700Z 1618/1718 08012KT 9000 SCT020 BECMG 1702/1704 VRB03KT BECMG 1715/1717 08012KT

Säähavainnot ja -ennusteet yli 4000 lentoasemalta (METAR- ja TAF-raportit).

Käytössä olevat sääasemat on merkitty karttaan keltaisilla ja punaisilla pisteillä.

Aseta hiiri pisteen päälle nähdäksesi sääaseman nimen.

Klikkaa sitten nähdäksesi säähavainnot ja -ennusteet.

Kartan vaihtaminen: klikkaa mustalla rastilla varustettuja vihreitä pisteitä, niin voit zoomata sisään; viivalla varustettua vihreää pistettä, niin voit zoomata ulos tai vihreitä nuolia, niin pääset viereisille kartoille.


METAR-TAF: